createdAt,value
2018-09-11T00:02:03.835Z,63.20
2018-09-11T00:04:32.164Z,63.10
2018-09-11T00:06:59.681Z,63.10
2018-09-11T00:09:27.232Z,62.90
2018-09-11T00:11:55.438Z,63.10
2018-09-11T00:14:22.873Z,63.20
2018-09-11T00:16:50.390Z,63.00
2018-09-11T00:19:17.891Z,62.80
2018-09-11T00:21:45.391Z,62.90
2018-09-11T00:24:12.946Z,63.00
2018-09-11T00:26:40.430Z,63.00
2018-09-11T00:29:07.887Z,63.10
2018-09-11T00:31:35.677Z,63.30
2018-09-11T00:34:03.325Z,63.50
2018-09-11T00:36:30.860Z,63.60
2018-09-11T00:38:58.711Z,63.50
2018-09-11T00:41:26.300Z,63.50
2018-09-11T00:43:53.869Z,63.50
2018-09-11T00:46:21.422Z,63.50
2018-09-11T00:48:49.015Z,63.60
2018-09-11T00:51:20.790Z,63.70
2018-09-11T00:53:48.247Z,63.50
2018-09-11T00:56:15.836Z,63.70
2018-09-11T00:58:43.452Z,64.00
2018-09-11T01:01:10.963Z,64.30
2018-09-11T01:03:38.514Z,64.70
2018-09-11T01:06:06.157Z,64.60
2018-09-11T01:08:33.597Z,65.00
2018-09-11T01:11:01.435Z,64.50
2018-09-11T01:13:28.891Z,63.90
2018-09-11T01:15:56.418Z,63.80
2018-09-11T01:18:23.950Z,64.00
2018-09-11T01:20:51.409Z,63.70
2018-09-11T01:23:18.933Z,63.40
2018-09-11T01:25:46.378Z,63.40
2018-09-11T01:28:14.021Z,63.40
2018-09-11T01:30:41.496Z,62.80
2018-09-11T01:33:09.193Z,63.00
2018-09-11T01:35:36.625Z,62.90
2018-09-11T01:38:04.906Z,63.20
2018-09-11T01:40:32.378Z,64.00
2018-09-11T01:43:00.333Z,63.80
2018-09-11T01:45:27.763Z,63.80
2018-09-11T01:47:55.210Z,63.80
2018-09-11T01:50:22.719Z,64.10
2018-09-11T01:52:50.211Z,64.40
2018-09-11T01:55:17.680Z,64.50
2018-09-11T01:57:45.147Z,64.70
2018-09-11T02:00:19.786Z,65.00
2018-09-11T02:02:47.631Z,64.90
2018-09-11T02:05:15.294Z,65.10
2018-09-11T02:07:43.470Z,65.20
2018-09-11T02:10:11.445Z,65.30
2018-09-11T02:12:38.875Z,65.30
2018-09-11T02:15:06.668Z,65.60
2018-09-11T02:17:34.194Z,65.60
2018-09-11T02:20:01.722Z,65.50
2018-09-11T02:22:29.141Z,65.40
2018-09-11T02:24:56.697Z,65.40
2018-09-11T02:27:24.166Z,65.70
2018-09-11T02:29:51.706Z,65.70
2018-09-11T02:32:19.226Z,65.90
2018-09-11T02:34:46.662Z,66.10
2018-09-11T02:37:14.802Z,66.00
2018-09-11T02:39:42.285Z,66.00
2018-09-11T02:42:09.811Z,66.10
2018-09-11T02:44:37.317Z,66.30
2018-09-11T02:47:04.970Z,66.10
2018-09-11T02:49:32.442Z,66.50
2018-09-11T02:52:00.002Z,66.50
2018-09-11T02:54:27.431Z,66.40
2018-09-11T02:56:54.963Z,66.50
2018-09-11T02:59:22.377Z,66.60
2018-09-11T03:01:49.947Z,66.70
2018-09-11T03:04:17.542Z,66.50
2018-09-11T03:06:45.155Z,66.60
2018-09-11T03:09:12.762Z,66.50
2018-09-11T03:11:40.422Z,66.50
2018-09-11T03:14:07.923Z,66.00
2018-09-11T03:16:35.488Z,65.80
2018-09-11T03:19:03.115Z,66.10
2018-09-11T03:21:30.599Z,65.80
2018-09-11T03:23:58.150Z,65.90
2018-09-11T03:26:25.659Z,66.10
2018-09-11T03:28:53.127Z,66.10
2018-09-11T03:31:20.669Z,66.00
2018-09-11T03:33:48.205Z,66.10
2018-09-11T03:36:15.697Z,66.20
2018-09-11T03:38:43.329Z,66.40
2018-09-11T03:41:11.019Z,66.50
2018-09-11T03:43:38.558Z,66.60
2018-09-11T03:46:06.005Z,66.70
2018-09-11T03:48:33.478Z,66.60
2018-09-11T03:51:01.048Z,66.50
2018-09-11T03:53:32.732Z,66.30
2018-09-11T03:56:00.226Z,66.40
2018-09-11T03:58:27.752Z,66.60
2018-09-11T04:00:55.190Z,66.60
2018-09-11T04:03:22.627Z,67.10
2018-09-11T04:05:50.082Z,67.20
2018-09-11T04:08:17.602Z,67.30
2018-09-11T04:10:45.179Z,67.00
2018-09-11T04:13:12.685Z,66.80
2018-09-11T04:15:40.186Z,66.80
2018-09-11T04:18:07.649Z,66.70
2018-09-11T04:20:35.326Z,66.70
2018-09-11T04:23:02.891Z,66.60
2018-09-11T04:25:30.431Z,66.60
2018-09-11T04:27:57.883Z,66.60
2018-09-11T04:30:25.388Z,66.50
2018-09-11T04:32:52.899Z,66.40
2018-09-11T04:35:20.410Z,66.10
2018-09-11T04:37:47.849Z,66.00
2018-09-11T04:40:15.488Z,66.00
2018-09-11T04:42:43.019Z,66.00
2018-09-11T04:45:10.557Z,65.90
2018-09-11T04:47:38.051Z,66.20
2018-09-11T04:50:05.670Z,66.40
2018-09-11T04:52:33.124Z,66.80
2018-09-11T04:55:00.594Z,66.90
2018-09-11T04:57:28.063Z,66.80
2018-09-11T04:59:55.642Z,66.80
2018-09-11T05:02:23.127Z,66.70
2018-09-11T05:04:50.574Z,66.70
2018-09-11T05:07:18.415Z,66.70
2018-09-11T05:09:45.890Z,66.60
2018-09-11T05:12:13.456Z,66.80
2018-09-11T05:14:40.928Z,66.80
2018-09-11T05:17:08.437Z,67.00
2018-09-11T05:19:35.931Z,67.00
2018-09-11T05:22:03.407Z,67.00
2018-09-11T05:24:30.969Z,67.10
2018-09-11T05:26:58.486Z,67.00
2018-09-11T05:29:25.982Z,67.20
2018-09-11T05:31:53.498Z,67.10
2018-09-11T05:34:21.167Z,67.30
2018-09-11T05:36:48.730Z,67.60
2018-09-11T05:39:16.198Z,67.60
2018-09-11T05:41:43.663Z,67.70
2018-09-11T05:44:11.110Z,67.40
2018-09-11T05:46:38.531Z,68.20
2018-09-11T05:49:06.016Z,67.50
2018-09-11T05:51:33.475Z,67.80
2018-09-11T05:54:00.932Z,67.60
2018-09-11T05:56:28.385Z,67.50
2018-09-11T05:58:55.841Z,67.70
2018-09-11T06:01:23.572Z,67.70
2018-09-11T06:03:51.101Z,67.70
2018-09-11T06:06:18.645Z,68.50
2018-09-11T06:11:25.194Z,67.90
2018-09-11T06:13:52.721Z,67.90
2018-09-11T06:16:20.259Z,68.00
2018-09-11T06:18:47.746Z,68.10
2018-09-11T06:21:15.225Z,68.00
2018-09-11T06:23:42.779Z,67.70
2018-09-11T06:26:10.308Z,67.90
2018-09-11T06:28:37.817Z,67.60
2018-09-11T06:31:05.723Z,67.50
2018-09-11T06:33:33.272Z,67.50
2018-09-11T06:36:00.838Z,67.40
2018-09-11T06:38:28.477Z,68.30
2018-09-11T06:40:56.505Z,67.50
2018-09-11T06:43:24.050Z,67.70
2018-09-11T06:45:51.493Z,67.70
2018-09-11T06:48:18.998Z,67.20
2018-09-11T06:50:46.451Z,66.30
2018-09-11T06:53:13.868Z,67.40
2018-09-11T06:55:41.473Z,67.50
2018-09-11T06:58:13.718Z,68.50
2018-09-11T07:00:41.356Z,67.60
2018-09-11T07:03:08.893Z,68.50
2018-09-11T07:05:38.921Z,68.60
2018-09-11T07:08:18.815Z,68.50
2018-09-11T07:10:48.807Z,68.30
2018-09-11T07:13:19.627Z,67.00
2018-09-11T07:15:58.610Z,67.50
2018-09-11T07:18:28.798Z,67.10
2018-09-11T07:20:57.098Z,67.20
2018-09-11T07:23:27.626Z,66.70
2018-09-11T07:26:13.031Z,67.30
2018-09-11T07:53:12.591Z,67.00
2018-09-11T07:55:40.380Z,64.60
2018-09-11T07:58:31.681Z,64.30
2018-09-11T08:01:13.958Z,65.00
2018-09-11T08:03:47.691Z,65.50
2018-09-11T08:06:26.421Z,65.10
2018-09-11T08:08:57.591Z,64.40
2018-09-11T08:11:27.344Z,64.30
2018-09-11T08:14:09.236Z,64.50
2018-09-11T08:16:43.303Z,64.20
2018-09-11T08:19:22.301Z,64.20
2018-09-11T08:21:58.455Z,63.80
2018-09-11T08:24:28.056Z,63.80
2018-09-11T08:27:01.288Z,64.00
2018-09-11T08:29:37.481Z,64.20
2018-09-11T08:32:10.155Z,64.30
2018-09-11T08:34:46.449Z,63.40
2018-09-11T08:37:15.415Z,63.50
2018-09-11T08:39:44.641Z,63.60
2018-09-11T08:42:13.234Z,63.50
2018-09-11T09:03:43.292Z,62.30
2018-09-11T09:06:27.820Z,60.40
2018-09-11T09:11:40.426Z,59.40
2018-09-11T09:14:13.022Z,59.50
2018-09-11T09:16:48.290Z,58.80
2018-09-11T09:19:30.514Z,58.30
2018-09-11T09:22:02.658Z,57.60
2018-09-11T09:24:56.636Z,57.30
2018-09-11T09:27:39.043Z,57.30
2018-09-11T09:33:08.949Z,56.70
2018-09-11T09:35:55.606Z,54.60
2018-09-11T09:38:47.843Z,53.50
2018-09-11T09:44:21.188Z,53.30
2018-09-11T09:46:58.366Z,52.90
2018-09-11T09:49:33.560Z,52.50
2018-09-11T09:52:24.497Z,53.10
2018-09-11T09:57:57.700Z,52.00
2018-09-11T10:00:34.675Z,51.60
2018-09-11T10:03:26.253Z,51.80
2018-09-11T10:06:08.920Z,51.30
2018-09-11T10:08:42.642Z,52.10
2018-09-11T10:14:15.707Z,51.80
2018-09-11T10:16:46.819Z,51.50
2018-09-11T10:19:24.172Z,51.90
2018-09-11T10:21:54.202Z,51.70
2018-09-11T10:24:32.412Z,51.50
2018-09-11T10:29:48.119Z,50.90
2018-09-11T10:32:36.431Z,50.70
2018-09-11T10:35:19.633Z,51.00
2018-09-11T10:37:51.690Z,50.60
2018-09-11T10:40:21.407Z,50.10
2018-09-11T10:42:54.992Z,49.20
2018-09-11T10:45:27.978Z,48.60
2018-09-11T10:48:15.439Z,48.20
2018-09-11T10:50:54.895Z,47.90
2018-09-11T10:53:41.783Z,48.60
2018-09-11T10:56:33.412Z,48.40
2018-09-11T10:59:06.023Z,47.90
2018-09-11T11:01:42.155Z,47.50
2018-09-11T11:04:36.044Z,47.70
2018-09-11T11:07:08.739Z,47.30
2018-09-11T11:14:59.743Z,45.50
2018-09-11T11:17:39.536Z,46.40
2018-09-11T11:20:37.586Z,46.50
2018-09-11T11:23:26.149Z,46.70
2018-09-11T11:25:58.456Z,46.70
2018-09-11T11:34:30.653Z,46.30
2018-09-11T11:37:02.412Z,45.70
2018-09-11T11:39:45.105Z,45.40
2018-09-11T11:42:20.781Z,45.40
2018-09-11T11:45:13.403Z,44.50
2018-09-11T11:47:58.099Z,43.80
2018-09-11T11:50:31.823Z,44.00
2018-09-11T11:53:02.812Z,44.10
2018-09-11T11:55:34.949Z,44.00
2018-09-11T11:58:05.160Z,44.40
2018-09-11T12:00:33.590Z,43.80
2018-09-11T12:03:06.228Z,42.90
2018-09-11T12:05:39.755Z,43.10
2018-09-11T12:08:12.288Z,42.50
2018-09-11T12:10:44.005Z,42.30
2018-09-11T12:13:17.079Z,42.20
2018-09-11T12:15:44.732Z,42.70
2018-09-11T12:18:17.690Z,42.90
2018-09-11T12:20:53.905Z,43.10
2018-09-11T12:23:29.794Z,43.60
2018-09-11T12:26:03.758Z,43.70
2018-09-11T12:28:39.654Z,42.60
2018-09-11T12:31:13.673Z,42.40
2018-09-11T12:33:49.771Z,42.20
2018-09-11T12:36:19.291Z,41.50
2018-09-11T12:38:49.063Z,42.30
2018-09-11T12:41:34.109Z,42.50
2018-09-11T12:44:02.956Z,42.50
2018-09-11T12:46:35.322Z,41.30
2018-09-11T12:49:06.250Z,42.40
2018-09-11T12:51:36.423Z,42.20
2018-09-11T12:54:15.711Z,41.50
2018-09-11T12:56:54.393Z,42.10
2018-09-11T12:59:25.671Z,41.80
2018-09-11T13:01:56.318Z,42.30
2018-09-11T13:04:28.542Z,42.40
2018-09-11T13:07:03.622Z,41.60
2018-09-11T13:09:42.455Z,40.80
2018-09-11T13:12:17.042Z,40.00
2018-09-11T13:14:46.112Z,40.40
2018-09-11T13:17:13.903Z,40.70
2018-09-11T13:19:45.388Z,40.20
2018-09-11T13:22:25.216Z,40.10
2018-09-11T13:25:02.060Z,39.70
2018-09-11T13:27:36.476Z,39.30
2018-09-11T13:30:06.460Z,39.10
2018-09-11T13:32:48.537Z,38.70
2018-09-11T13:35:26.604Z,38.20
2018-09-11T13:37:58.999Z,38.20
2018-09-11T13:40:28.173Z,39.20
2018-09-11T13:43:04.994Z,38.90
2018-09-11T13:45:36.154Z,39.70
2018-09-11T13:48:10.840Z,38.70
2018-09-11T13:50:40.570Z,38.20
2018-09-11T13:53:22.173Z,38.40
2018-09-11T13:56:04.851Z,38.00
2018-09-11T13:58:36.605Z,37.50
2018-09-11T14:01:05.724Z,37.10
2018-09-11T14:03:41.741Z,37.30
2018-09-11T14:06:10.879Z,37.90
2018-09-11T14:08:43.691Z,37.50
2018-09-11T14:14:09.140Z,37.30
2018-09-11T14:16:42.642Z,37.20
2018-09-11T14:19:15.767Z,37.50
2018-09-11T14:21:44.051Z,37.40
2018-09-11T14:24:21.096Z,37.10
2018-09-11T14:26:52.956Z,37.10
2018-09-11T14:29:33.888Z,36.90
2018-09-11T14:35:09.186Z,36.80
2018-09-11T14:37:42.580Z,35.40
2018-09-11T14:40:11.938Z,36.00
2018-09-11T14:42:45.098Z,35.90
2018-09-11T14:45:20.631Z,35.90
2018-09-11T14:48:02.852Z,34.40
2018-09-11T14:50:32.386Z,33.80
2018-09-11T14:53:04.425Z,33.80
2018-09-11T14:55:33.567Z,33.80
2018-09-11T14:58:06.370Z,34.30
2018-09-11T15:00:41.297Z,34.70
2018-09-11T15:03:10.179Z,34.40
2018-09-11T15:05:43.304Z,33.60
2018-09-11T15:08:14.334Z,34.10
2018-09-11T15:10:56.391Z,33.80
2018-09-11T15:13:27.968Z,33.80
2018-09-11T15:16:08.595Z,33.30
2018-09-11T15:18:37.766Z,33.10
2018-09-11T15:21:15.401Z,34.00
2018-09-11T15:23:43.143Z,33.80
2018-09-11T15:26:15.661Z,34.00
2018-09-11T15:28:59.054Z,33.80
2018-09-11T15:31:37.434Z,33.40
2018-09-11T15:34:08.318Z,33.50
2018-09-11T15:36:56.991Z,33.90
2018-09-11T15:39:36.387Z,34.40
2018-09-11T15:42:05.579Z,34.00
2018-09-11T15:44:35.392Z,33.70
2018-09-11T15:47:14.042Z,34.80
2018-09-11T15:49:43.615Z,34.20
2018-09-11T15:52:12.910Z,34.10
2018-09-11T15:54:56.550Z,34.10
2018-09-11T15:57:33.755Z,34.40
2018-09-11T16:00:22.355Z,34.30
2018-09-11T16:02:55.279Z,34.60
2018-09-11T16:08:06.760Z,33.80
2018-09-11T16:10:50.891Z,33.40
2018-09-11T16:13:22.181Z,33.40
2018-09-11T16:15:56.774Z,33.90
2018-09-11T16:18:24.687Z,33.70
2018-09-11T16:20:54.709Z,34.50
2018-09-11T16:23:25.079Z,34.20
2018-09-11T16:26:05.061Z,34.50
2018-09-11T16:28:36.528Z,34.90
2018-09-11T16:31:06.271Z,34.90
2018-09-11T16:33:37.034Z,34.00
2018-09-11T16:36:08.418Z,34.20
2018-09-11T16:38:37.863Z,34.00
2018-09-11T16:41:15.400Z,34.00
2018-09-11T16:43:44.106Z,33.60
2018-09-11T16:46:19.883Z,34.60
2018-09-11T16:48:48.690Z,34.40
2018-09-11T16:51:22.263Z,33.80
2018-09-11T16:53:50.556Z,33.80
2018-09-11T16:56:18.880Z,33.90
2018-09-11T16:58:53.608Z,34.10
2018-09-11T17:01:22.228Z,34.50
2018-09-11T17:03:52.710Z,34.40
2018-09-11T17:06:36.526Z,34.50
2018-09-11T17:09:08.279Z,34.70
2018-09-11T17:11:45.268Z,34.80
2018-09-11T17:17:11.957Z,35.20
2018-09-11T17:19:42.409Z,35.50
2018-09-11T17:22:18.208Z,35.40
2018-09-11T17:28:10.704Z,35.70
2018-09-11T17:30:39.415Z,36.70
2018-09-11T17:33:08.272Z,36.20
2018-09-11T17:35:43.451Z,36.60
2018-09-11T17:38:25.382Z,36.80
2018-09-11T17:41:01.625Z,36.60
2018-09-11T17:43:57.372Z,36.60
2018-09-11T17:46:30.145Z,37.10
2018-09-11T17:49:04.491Z,37.50
2018-09-11T17:51:34.662Z,38.10
2018-09-11T17:54:09.247Z,38.60
2018-09-11T17:56:43.152Z,38.60
2018-09-11T17:59:13.507Z,38.20
2018-09-11T18:04:26.376Z,38.60
2018-09-11T18:07:00.759Z,38.30
2018-09-11T18:09:29.025Z,38.30
2018-09-11T18:12:00.591Z,38.50
2018-09-11T18:14:41.508Z,38.70
2018-09-11T18:17:10.502Z,38.50
2018-09-11T18:19:39.965Z,39.00
2018-09-11T18:22:15.109Z,39.40
2018-09-11T18:24:59.268Z,39.80
2018-09-11T18:27:29.881Z,40.40
2018-09-11T18:30:09.199Z,40.40
2018-09-11T18:32:40.278Z,41.00
2018-09-11T18:35:11.935Z,41.50
2018-09-11T18:37:45.059Z,42.30
2018-09-11T18:43:04.701Z,43.80
2018-09-11T18:45:34.837Z,43.60
2018-09-11T18:48:16.878Z,44.30
2018-09-11T18:50:55.545Z,44.90
2018-09-11T18:53:41.485Z,45.30
2018-09-11T18:56:18.793Z,46.30
2018-09-11T18:58:59.511Z,46.80
2018-09-11T19:01:30.871Z,47.20
2018-09-11T19:04:09.801Z,47.40
2018-09-11T19:06:38.258Z,47.60
2018-09-11T19:09:10.434Z,47.90
2018-09-11T19:11:38.938Z,47.90
2018-09-11T19:14:12.554Z,48.50
2018-09-11T19:16:42.515Z,47.90
2018-09-11T19:19:13.561Z,48.40
2018-09-11T19:21:41.747Z,48.50
2018-09-11T19:24:09.411Z,48.70
2018-09-11T19:26:43.040Z,49.00
2018-09-11T19:29:12.889Z,49.00
2018-09-11T19:31:46.362Z,49.10
2018-09-11T19:34:21.642Z,49.40
2018-09-11T19:36:50.242Z,49.80
2018-09-11T19:39:24.155Z,50.00
2018-09-11T19:41:52.775Z,49.60
2018-09-11T19:44:21.306Z,49.90
2018-09-11T19:46:55.099Z,49.90
2018-09-11T19:49:23.887Z,49.50
2018-09-11T19:51:51.683Z,49.70
2018-09-11T19:54:20.875Z,49.90
2018-09-11T19:56:50.019Z,50.50
2018-09-11T19:59:19.821Z,50.50
2018-09-11T20:01:52.097Z,50.60
2018-09-11T20:04:22.347Z,50.70
2018-09-11T20:06:51.352Z,50.80
2018-09-11T20:09:18.771Z,51.90
2018-09-11T20:11:46.278Z,52.30
2018-09-11T20:14:13.720Z,52.30
2018-09-11T20:16:41.198Z,52.00
2018-09-11T20:19:08.792Z,51.90
2018-09-11T20:21:36.278Z,52.00
2018-09-11T20:24:03.811Z,52.20
2018-09-11T20:26:31.746Z,52.00
2018-09-11T20:28:59.266Z,52.10
2018-09-11T20:31:26.734Z,52.30
2018-09-11T20:33:54.302Z,52.50
2018-09-11T20:36:21.802Z,52.50
2018-09-11T20:38:49.275Z,52.50
2018-09-11T20:41:16.785Z,52.50
2018-09-11T20:43:44.319Z,52.30
2018-09-11T20:46:11.785Z,52.30
2018-09-11T20:48:39.318Z,52.40
2018-09-11T20:51:06.867Z,52.40
2018-09-11T20:53:34.538Z,52.30
2018-09-11T20:56:02.236Z,52.50
2018-09-11T20:58:29.631Z,52.50
2018-09-11T21:00:57.139Z,52.50
2018-09-11T21:03:24.618Z,52.70
2018-09-11T21:05:52.141Z,53.00
2018-09-11T21:08:19.600Z,52.90
2018-09-11T21:10:47.118Z,52.90
2018-09-11T21:13:14.563Z,53.10
2018-09-11T21:15:42.192Z,53.30
2018-09-11T21:18:09.654Z,53.40
2018-09-11T21:20:37.387Z,53.50
2018-09-11T21:23:05.102Z,53.60
2018-09-11T21:25:32.566Z,53.50
2018-09-11T21:28:00.067Z,53.70
2018-09-11T21:30:27.578Z,53.80
2018-09-11T21:32:55.041Z,54.00
2018-09-11T21:35:22.503Z,53.90
2018-09-11T21:37:50.114Z,54.00
2018-09-11T21:40:17.790Z,54.10
2018-09-11T21:42:45.394Z,54.10
2018-09-11T21:45:13.199Z,54.10
2018-09-11T21:47:41.637Z,54.30
2018-09-11T21:50:09.091Z,54.60
2018-09-11T21:52:36.671Z,54.90
2018-09-11T21:55:04.587Z,55.00
2018-09-11T21:57:32.090Z,55.20
2018-09-11T21:59:59.527Z,55.50
2018-09-11T22:02:26.994Z,55.70
2018-09-11T22:04:54.422Z,55.70
2018-09-11T22:07:21.950Z,55.80
2018-09-11T22:09:49.394Z,55.90
2018-09-11T22:12:16.891Z,55.70
2018-09-11T22:14:44.368Z,55.70
2018-09-11T22:17:12.880Z,55.70
2018-09-11T22:19:40.844Z,55.60
2018-09-11T22:22:08.394Z,55.60
2018-09-11T22:24:35.924Z,55.80
2018-09-11T22:27:03.480Z,55.80
2018-09-11T22:29:31.002Z,55.80
2018-09-11T22:31:58.493Z,56.00
2018-09-11T22:34:26.627Z,56.00
2018-09-11T22:36:54.150Z,56.20
2018-09-11T22:39:21.653Z,56.20
2018-09-11T22:41:49.184Z,56.20
2018-09-11T22:44:16.699Z,56.40
2018-09-11T22:46:44.197Z,56.30
2018-09-11T22:49:11.681Z,56.20
2018-09-11T22:51:39.131Z,56.30
2018-09-11T22:54:06.618Z,56.40
2018-09-11T22:56:34.058Z,56.30
2018-09-11T22:59:01.583Z,56.40
2018-09-11T23:01:29.065Z,56.40
2018-09-11T23:03:56.567Z,56.50
2018-09-11T23:06:24.154Z,56.30
2018-09-11T23:08:51.639Z,56.60
2018-09-11T23:11:19.090Z,56.60
2018-09-11T23:13:46.864Z,56.70
2018-09-11T23:16:14.273Z,57.00
2018-09-11T23:18:41.754Z,56.90
2018-09-11T23:21:09.237Z,56.80
2018-09-11T23:23:36.849Z,56.80
2018-09-11T23:26:04.341Z,57.00
2018-09-11T23:28:31.813Z,57.00
2018-09-11T23:30:59.470Z,57.10
2018-09-11T23:33:27.014Z,57.20
2018-09-11T23:35:54.493Z,57.30
2018-09-11T23:38:22.014Z,57.30
2018-09-11T23:40:49.530Z,57.40
2018-09-11T23:43:17.022Z,57.50
2018-09-11T23:45:44.494Z,57.60
2018-09-11T23:48:12.092Z,57.60
2018-09-11T23:50:39.575Z,57.80
2018-09-11T23:53:07.149Z,57.70
2018-09-11T23:55:34.656Z,57.90
2018-09-11T23:58:02.199Z,57.90
